Time;durP1;ratioP1;P1;durP2;ratioP2;P2;SDS_P1;SDS_P2;PMS_P1;PMS_P2;Temp;Humidity;BMP_temperature;BMP_pressure;BME280_temperature;BME280_humidity;BME280_pressure;Samples;Min_cycle;Max_cycle;Signal;HPM_P1;HPM_P2
2021/12/05 00:17:21;;;;;;;3.63;0.90;;;;;;;5.55;88.39;94293.50;4978007;28;20263;-85
2021/12/05 00:19:59;;;;;;;1.03;0.97;;;;;;;5.50;86.96;94295.78;4977268;28;20674;-85
2021/12/05 00:22:36;;;;;;;1.23;1.00;;;;;;;5.53;87.18;94311.53;4977310;28;20224;-86
2021/12/05 00:25:11;;;;;;;1.97;1.00;;;;;;;5.49;85.62;94317.16;4977452;28;20212;-85
2021/12/05 00:27:49;;;;;;;1.20;1.00;;;;;;;5.39;85.26;94319.97;4977896;28;20203;-85
2021/12/05 00:30:41;;;;;;;0.93;0.90;;;;;;;5.43;85.31;94316.09;4977673;28;20234;-85
2021/12/05 00:33:30;;;;;;;1.30;1.00;;;;;;;5.47;85.10;94314.78;4978529;28;20224;-85
2021/12/05 00:36:50;;;;;;;1.67;0.93;;;;;;;5.47;83.93;94314.78;4978343;28;20200;-86
2021/12/05 00:39:23;;;;;;;1.97;1.20;;;;;;;5.44;83.42;94320.25;4977154;28;20196;-85
2021/12/05 00:42:08;;;;;;;1.00;0.90;;;;;;;5.38;83.77;94323.53;4978122;28;20646;-85
2021/12/05 00:45:16;;;;;;;1.00;0.90;;;;;;;5.40;83.25;94326.66;4977437;28;20642;-85
2021/12/05 00:48:03;;;;;;;2.80;1.00;;;;;;;5.35;82.76;94325.63;4977527;28;20211;-85
2021/12/05 00:54:02;;;;;;;1.07;0.97;;;;;;;5.33;81.60;94333.44;4963765;28;20229;-85
2021/12/05 00:56:37;;;;;;;1.60;1.10;;;;;;;5.35;80.94;94325.63;4986414;28;20262;-85
2021/12/05 00:59:29;;;;;;;1.40;1.13;;;;;;;5.41;80.83;94338.47;4971044;28;20235;-86
2021/12/05 01:05:18;;;;;;;1.73;0.87;;;;;;;5.33;80.22;94343.66;4976907;28;20227;-84
2021/12/05 01:08:05;;;;;;;1.80;1.03;;;;;;;5.36;80.20;94348.41;4979615;28;20207;-85
2021/12/05 01:10:53;;;;;;;2.87;1.13;;;;;;;5.31;80.36;94347.34;4974335;28;20220;-85
2021/12/05 01:13:36;;;;;;;0.97;0.87;;;;;;;5.21;80.03;94345.81;4978662;28;20270;-85
2021/12/05 01:16:07;;;;;;;1.73;0.90;;;;;;;5.25;80.18;94348.84;4979471;28;20886;-85
2021/12/05 01:18:34;;;;;;;1.80;0.80;;;;;;;5.29;80.96;94354.38;4979245;28;20215;-85
2021/12/05 01:21:12;;;;;;;2.80;1.00;;;;;;;5.30;80.55;94350.88;4978028;28;20224;-85
2021/12/05 01:23:50;;;;;;;1.27;0.97;;;;;;;5.21;81.42;94357.78;4959144;28;20235;-86
2021/12/05 01:26:21;;;;;;;1.13;0.90;;;;;;;5.15;81.64;94361.06;4960146;28;20200;-85
2021/12/05 01:29:03;;;;;;;3.37;1.20;;;;;;;5.25;81.69;94353.13;4978139;28;20692;-85
2021/12/05 01:31:41;;;;;;;1.70;1.00;;;;;;;5.20;81.36;94357.00;4978090;28;20672;-85
2021/12/05 01:34:26;;;;;;;1.30;1.20;;;;;;;5.15;81.89;94366.16;4977630;28;20223;-85
2021/12/05 01:37:05;;;;;;;0.83;0.80;;;;;;;5.17;81.56;94359.13;4977781;28;20208;-85
2021/12/05 01:39:51;;;;;;;1.27;0.90;;;;;;;5.15;81.35;94368.72;4976621;28;20290;-85
2021/12/05 01:43:06;;;;;;;1.10;0.93;;;;;;;5.23;81.25;94360.97;4977178;28;20228;-85
2021/12/05 01:57:01;;;;;;;1.00;0.90;;;;;;;5.14;80.31;94365.38;4960553;28;20230;-85
2021/12/05 01:59:42;;;;;;;0.90;0.90;;;;;;;5.15;80.80;94371.25;4983267;28;20228;-85
2021/12/05 02:08:22;;;;;;;0.80;0.80;;;;;;;5.24;81.24;94382.16;4978433;28;20207;-85
2021/12/05 02:11:11;;;;;;;1.93;1.00;;;;;;;5.26;80.96;94375.94;4978926;28;20645;-85
2021/12/05 02:16:44;;;;;;;1.17;1.00;;;;;;;5.29;80.71;94374.78;4982324;28;20702;-85
2021/12/05 02:30:46;;;;;;;1.70;0.97;;;;;;;5.13;82.07;94373.97;4981459;28;20638;-85
2021/12/05 02:39:14;;;;;;;1.27;1.10;;;;;;;5.39;83.83;94373.56;4981060;28;20774;-86
2021/12/05 02:41:42;;;;;;;1.30;1.03;;;;;;;5.26;84.62;94380.25;4980779;28;20204;-85
2021/12/05 02:44:15;;;;;;;0.80;0.80;;;;;;;5.33;84.26;94378.59;4981098;28;20256;-85
2021/12/05 02:46:44;;;;;;;1.87;1.00;;;;;;;5.38;83.57;94378.88;4981022;28;20196;-85
2021/12/05 02:49:13;;;;;;;1.97;1.00;;;;;;;5.43;83.93;94379.13;4981350;28;20224;-85
2021/12/05 02:51:40;;;;;;;1.73;1.00;;;;;;;5.52;83.57;94383.97;4981729;28;20219;-86
2021/12/05 02:54:12;;;;;;;1.10;1.00;;;;;;;5.60;83.72;94382.28;4980958;28;20569;-85
2021/12/05 02:56:42;;;;;;;1.30;1.13;;;;;;;5.65;83.46;94380.03;4981220;28;20255;-85
2021/12/05 02:59:19;;;;;;;1.30;1.20;;;;;;;5.65;84.54;94374.91;4980275;28;20283;-85
2021/12/05 03:01:51;;;;;;;1.20;1.10;;;;;;;5.59;85.10;94384.06;4980610;28;20228;-86
2021/12/05 03:04:18;;;;;;;1.40;0.90;;;;;;;5.60;85.26;94395.06;4981733;28;20193;-85
2021/12/05 03:06:51;;;;;;;1.10;1.00;;;;;;;5.61;83.97;94400.00;4981210;28;20295;-85
2021/12/05 03:09:20;;;;;;;0.90;0.90;;;;;;;5.55;84.27;94408.38;4979771;28;20227;-86
2021/12/05 03:11:47;;;;;;;1.87;1.20;;;;;;;5.41;84.96;94398.91;4980728;28;20227;-85
2021/12/05 03:14:14;;;;;;;1.10;1.03;;;;;;;5.42;84.76;94405.59;4980678;28;20576;-86
2021/12/05 03:16:41;;;;;;;1.27;1.10;;;;;;;5.35;84.06;94408.06;4980987;28;20195;-85
2021/12/05 03:19:09;;;;;;;1.43;1.10;;;;;;;5.37;84.44;94406.16;4980763;28;20254;-85
2021/12/05 03:21:39;;;;;;;1.40;1.07;;;;;;;5.32;84.64;94405.88;4980656;28;20208;-85
2021/12/05 03:24:10;;;;;;;1.37;1.10;;;;;;;5.20;83.94;94409.78;4982028;28;20220;-85
2021/12/05 03:26:41;;;;;;;0.80;0.80;;;;;;;5.18;83.35;94415.09;4981612;28;20204;-85
2021/12/05 03:29:10;;;;;;;1.93;1.20;;;;;;;5.10;81.09;94415.13;4980713;28;20231;-85
2021/12/05 03:31:37;;;;;;;1.00;0.90;;;;;;;5.03;79.23;94413.44;4981383;28;20750;-85
2021/12/05 03:34:05;;;;;;;0.87;0.80;;;;;;;4.99;80.74;94412.22;4981430;28;20207;-85
2021/12/05 03:36:32;;;;;;;2.67;1.17;;;;;;;5.04;80.33;94413.25;4980832;28;20208;-85
2021/12/05 03:38:58;;;;;;;2.50;1.10;;;;;;;5.05;79.75;94409.75;4981109;28;20204;-85
2021/12/05 03:41:25;;;;;;;1.30;1.00;;;;;;;5.02;79.04;94416.94;4980776;28;20200;-85
2021/12/05 03:43:55;;;;;;;2.93;0.90;;;;;;;4.90;79.04;94416.56;4979772;28;20245;-85
2021/12/05 03:46:23;;;;;;;4.40;1.20;;;;;;;4.89;79.42;94404.78;4980158;28;20204;-85
2021/12/05 03:48:54;;;;;;;1.37;0.90;;;;;;;4.91;79.39;94418.16;4979461;28;20291;-85
2021/12/05 03:51:23;;;;;;;0.83;0.80;;;;;;;4.89;77.72;94414.19;4980069;28;20204;-85
2021/12/05 03:53:50;;;;;;;2.63;1.07;;;;;;;4.91;78.20;94415.59;4979413;28;20220;-85
2021/12/05 03:56:17;;;;;;;1.77;0.90;;;;;;;4.90;77.81;94414.00;4978890;28;20251;-85
2021/12/05 03:58:45;;;;;;;1.63;0.97;;;;;;;4.91;77.97;94410.50;4978148;28;20212;-85
2021/12/05 04:01:13;;;;;;;1.27;0.90;;;;;;;4.83;77.62;94419.00;4979563;28;20196;-85
2021/12/05 04:03:42;;;;;;;1.33;0.90;;;;;;;4.84;77.31;94414.69;4979076;28;20679;-85
2021/12/05 04:06:11;;;;;;;1.07;0.90;;;;;;;4.90;76.89;94410.66;4978617;28;20200;-85
2021/12/05 04:08:39;;;;;;;1.03;0.60;;;;;;;4.89;76.87;94414.19;4978602;28;20200;-85
2021/12/05 04:11:13;;;;;;;1.07;0.87;;;;;;;4.91;76.03;94402.84;4978363;28;20220;-85
2021/12/05 04:13:39;;;;;;;2.33;0.83;;;;;;;4.89;75.39;94401.44;4979367;28;20219;-85
2021/12/05 04:16:07;;;;;;;1.27;1.00;;;;;;;4.97;75.74;94397.06;4979247;28;20212;-85
2021/12/05 04:18:36;;;;;;;2.80;0.90;;;;;;;4.95;75.08;94393.91;4978890;28;20204;-85
2021/12/05 04:21:05;;;;;;;2.40;1.10;;;;;;;4.88;75.74;94395.53;4978109;28;20651;-85
2021/12/05 04:23:32;;;;;;;3.60;0.93;;;;;;;4.91;75.84;94392.66;4979191;28;20593;-85
2021/12/05 04:25:59;;;;;;;2.03;1.10;;;;;;;4.89;75.85;94392.03;4979854;28;20203;-85
2021/12/05 04:28:25;;;;;;;2.00;1.00;;;;;;;4.94;75.98;94383.88;4980137;28;20208;-85
2021/12/05 04:30:52;;;;;;;1.20;1.10;;;;;;;4.97;75.78;94391.97;4978476;28;20227;-84
2021/12/05 04:33:18;;;;;;;3.53;0.90;;;;;;;4.94;75.79;94394.88;4979677;28;20231;-85
2021/12/05 04:35:47;;;;;;;2.10;1.07;;;;;;;4.99;76.24;94395.16;4978792;28;20333;-85
2021/12/05 04:38:14;;;;;;;1.57;0.87;;;;;;;4.99;76.25;94392.59;4978879;28;20208;-86
2021/12/05 04:40:42;;;;;;;1.80;1.00;;;;;;;4.99;76.24;94384.94;4977268;28;20220;-85
2021/12/05 04:43:09;;;;;;;1.83;0.90;;;;;;;4.99;76.31;94386.69;4977904;28;20243;-85
2021/12/05 04:45:37;;;;;;;2.30;1.03;;;;;;;4.99;75.94;94386.69;4976969;28;20495;-85
2021/12/05 04:48:06;;;;;;;2.03;1.10;;;;;;;4.93;76.22;94380.53;4977563;28;20200;-85
2021/12/05 04:50:35;;;;;;;1.90;0.87;;;;;;;4.85;76.64;94375.47;4976888;28;20224;-85
2021/12/05 04:53:04;;;;;;;1.20;0.90;;;;;;;4.94;77.13;94384.66;4977644;28;20216;-85
2021/12/05 04:55:31;;;;;;;1.67;1.07;;;;;;;4.82;77.16;94375.81;4978595;28;20255;-85
2021/12/05 04:57:58;;;;;;;2.33;0.90;;;;;;;4.86;77.37;94379.63;4976822;28;20192;-85
2021/12/05 05:00:29;;;;;;;1.73;1.00;;;;;;;4.82;77.80;94376.59;4977918;28;20262;-85
2021/12/05 05:02:57;;;;;;;1.33;1.10;;;;;;;4.85;77.59;94367.81;4978426;28;20224;-84
2021/12/05 05:05:25;;;;;;;2.17;1.07;;;;;;;4.89;77.58;94373.38;4977600;28;20211;-84
2021/12/05 05:07:52;;;;;;;3.13;1.40;;;;;;;4.91;77.69;94369.69;4977830;28;20204;-86
2021/12/05 05:10:23;;;;;;;2.90;1.13;;;;;;;4.86;77.18;94375.31;4977745;28;20234;-85
2021/12/05 05:12:49;;;;;;;1.67;1.00;;;;;;;4.88;77.26;94367.47;4978731;28;20230;-84
2021/12/05 05:15:22;;;;;;;1.43;0.97;;;;;;;4.89;77.47;94368.28;4978516;28;20208;-85
2021/12/05 05:17:50;;;;;;;1.03;0.93;;;;;;;4.97;77.52;94369.03;4978148;28;20223;-85
2021/12/05 05:20:23;;;;;;;1.13;1.00;;;;;;;4.96;77.15;94366.63;4977489;28;20758;-85
2021/12/05 05:23:05;;;;;;;2.33;1.30;;;;;;;4.93;76.87;94360.13;4976253;28;20231;-84
2021/12/05 05:28:52;;;;;;;1.03;0.90;;;;;;;4.76;77.22;94364.56;4965020;28;20211;-84
2021/12/05 05:45:17;;;;;;;3.47;1.10;;;;;;;4.90;76.46;94375.75;4947970;28;20427;-83
2021/12/05 05:47:58;;;;;;;2.53;1.43;;;;;;;4.97;76.98;94375.88;4983736;28;20303;-83
2021/12/05 05:50:25;;;;;;;4.33;1.47;;;;;;;4.99;76.18;94376.50;4981895;28;20232;-83
2021/12/05 05:52:51;;;;;;;3.57;1.20;;;;;;;4.98;76.46;94383.38;4984121;28;20219;-83
2021/12/05 05:55:18;;;;;;;4.43;1.40;;;;;;;5.00;76.73;94385.75;4983797;28;20211;-84
2021/12/05 05:57:56;;;;;;;3.43;1.20;;;;;;;4.98;76.26;94375.72;4983937;28;20201;-83
2021/12/05 06:00:32;;;;;;;3.43;1.37;;;;;;;5.01;76.20;94380.44;4963865;28;20236;-83
2021/12/05 06:05:44;;;;;;;2.77;1.47;;;;;;;5.04;75.86;94385.19;4983206;28;20803;-83
2021/12/05 06:08:11;;;;;;;2.67;1.37;;;;;;;5.05;75.95;94376.59;4983073;28;20215;-83
2021/12/05 06:10:37;;;;;;;1.20;1.10;;;;;;;5.05;76.13;94381.69;4982669;28;20259;-83
2021/12/05 06:13:05;;;;;;;3.40;1.30;;;;;;;5.02;75.95;94388.88;4982434;28;20224;-83
2021/12/05 06:15:32;;;;;;;2.57;1.40;;;;;;;4.98;75.84;94383.38;4982313;28;20204;-84
2021/12/05 06:17:59;;;;;;;2.60;1.53;;;;;;;5.02;76.05;94392.22;4982971;28;20231;-85
2021/12/05 06:20:30;;;;;;;1.97;1.40;;;;;;;5.03;75.89;94391.28;4980290;28;20291;-85
2021/12/05 06:22:56;;;;;;;2.90;1.60;;;;;;;5.01;75.61;94392.41;4982244;28;20228;-86
2021/12/05 06:25:25;;;;;;;2.97;1.30;;;;;;;4.97;75.49;94396.28;4979415;28;20272;-85
2021/12/05 06:27:54;;;;;;;1.23;1.10;;;;;;;4.92;75.99;94391.69;4981471;28;20200;-85
2021/12/05 06:30:32;;;;;;;1.50;1.13;;;;;;;4.93;75.73;94392.47;4980454;28;20251;-85
2021/12/05 06:38:55;;;;;;;2.17;1.10;;;;;;;4.97;75.86;94403.94;4926056;28;20299;-85
2021/12/05 06:41:34;;;;;;;1.57;1.10;;;;;;;4.99;75.67;94400.25;4981379;28;20276;-85
2021/12/05 06:46:46;;;;;;;2.10;1.20;;;;;;;4.85;76.13;94400.97;4981636;28;20473;-85
2021/12/05 06:49:12;;;;;;;2.30;1.30;;;;;;;4.87;75.60;94404.16;4982502;28;20255;-85
2021/12/05 06:51:39;;;;;;;3.53;1.20;;;;;;;4.85;75.70;94394.13;4981646;28;20688;-85
2021/12/05 06:54:05;;;;;;;1.27;1.10;;;;;;;4.84;75.48;94397.63;4978017;28;20199;-85
2021/12/05 06:56:32;;;;;;;2.63;1.47;;;;;;;4.80;75.42;94395.63;4977725;28;20660;-86
2021/12/05 06:58:58;;;;;;;2.63;1.40;;;;;;;4.76;75.45;94399.47;4977780;28;20207;-85
2021/12/05 07:01:25;;;;;;;3.43;1.20;;;;;;;4.80;75.88;94411.69;4978065;28;20568;-86
2021/12/05 07:03:53;;;;;;;1.97;1.33;;;;;;;4.76;75.94;94407.91;4977061;28;20274;-86
2021/12/05 07:06:22;;;;;;;3.57;1.40;;;;;;;4.78;75.47;94408.53;4978055;28;20318;-86
2021/12/05 07:08:51;;;;;;;2.70;1.43;;;;;;;4.78;75.67;94416.19;4977387;28;20208;-86
2021/12/05 07:11:23;;;;;;;2.73;1.40;;;;;;;4.83;75.78;94423.28;4977560;28;20208;-86
2021/12/05 07:16:53;;;;;;;1.63;1.23;;;;;;;4.77;75.67;94413.78;4922354;29;20274;-86
2021/12/05 07:19:32;;;;;;;3.83;1.60;;;;;;;4.76;75.86;94407.91;4926991;28;20240;-85
2021/12/05 07:22:01;;;;;;;2.47;1.50;;;;;;;4.69;75.98;94414.63;4959375;28;20263;-85
2021/12/05 07:24:39;;;;;;;2.50;1.10;;;;;;;4.73;75.90;94412.53;4978387;28;20219;-85
2021/12/05 07:40:20;;;;;;;2.90;1.40;;;;;;;4.75;75.89;94413.16;4978433;28;20204;-85
2021/12/05 07:41:11;;;;;;;2.10;1.20;;;;;;;4.91;75.80;94395.19;4975820;28;20241;-85
2021/12/05 07:43:39;;;;;;;2.10;1.27;;;;;;;4.96;75.46;94400.59;4975845;28;20232;-85
2021/12/05 07:46:06;;;;;;;2.23;1.20;;;;;;;4.87;75.37;94391.41;4975853;28;20204;-85
2021/12/05 07:48:35;;;;;;;2.37;1.20;;;;;;;4.89;75.28;94399.69;4971984;28;20196;-85
2021/12/05 07:51:10;;;;;;;1.40;1.00;;;;;;;4.90;75.28;94395.38;4976914;28;20238;-85
2021/12/05 07:53:46;;;;;;;2.20;1.20;;;;;;;4.97;75.48;94391.19;4976370;28;20223;-85
2021/12/05 07:56:14;;;;;;;1.73;1.20;;;;;;;4.99;75.50;94392.59;4976309;28;20228;-85
2021/12/05 07:58:55;;;;;;;2.33;1.30;;;;;;;5.03;75.36;94398.91;4977576;28;20196;-85
2021/12/05 08:15:16;;;;;;;3.43;1.60;;;;;;;6.75;71.93;94399.44;4976730;28;20239;-87
2021/12/05 08:17:50;;;;;;;2.40;1.40;;;;;;;6.77;72.18;94402.59;4974450;28;20238;-88
2021/12/05 08:20:17;;;;;;;1.37;1.00;;;;;;;6.65;69.50;94390.47;4978600;28;20239;-85
2021/12/05 08:22:45;;;;;;;2.87;1.17;;;;;;;6.55;70.01;94391.56;4978203;28;20236;-85
2021/12/05 08:25:13;;;;;;;4.67;1.33;;;;;;;6.27;70.95;94390.66;4977965;28;20525;-85
2021/12/05 08:27:47;;;;;;;1.43;1.10;;;;;;;6.23;71.34;94385.13;4979476;28;20200;-85
2021/12/05 08:30:22;;;;;;;2.07;1.00;;;;;;;6.03;70.81;94385.84;4972757;28;20630;-85
2021/12/05 08:33:08;;;;;;;2.20;1.33;;;;;;;6.00;71.35;94387.00;4971704;28;20219;-85
2021/12/05 08:36:00;;;;;;;3.13;1.43;;;;;;;5.84;72.07;94384.59;4970867;28;20208;-85
2021/12/05 09:29:10;;;;;;;1.27;1.13;;;;;;;6.01;70.07;94415.88;4975143;28;20216;-85
2021/12/05 09:40:17;;;;;;;2.73;1.47;;;;;;;6.03;69.44;94399.41;4966217;28;20603;-85
2021/12/05 09:51:34;;;;;;;2.97;1.27;;;;;;;5.95;67.96;94402.09;4983285;28;20242;-85
2021/12/05 10:08:43;;;;;;;4.03;1.57;;;;;;;6.21;68.05;94399.03;4974850;28;20690;-85
2021/12/05 10:11:29;;;;;;;1.93;1.50;;;;;;;6.23;67.38;94394.53;4966039;28;20228;-85
2021/12/05 10:14:12;;;;;;;3.27;1.20;;;;;;;6.27;68.57;94393.22;4975573;28;20247;-85
2021/12/05 10:17:04;;;;;;;3.40;1.50;;;;;;;6.32;68.50;94400.34;4975342;28;20204;-85
2021/12/05 10:20:13;;;;;;;3.13;1.10;;;;;;;6.26;68.51;94396.75;4965275;28;20315;-85
2021/12/05 10:34:33;;;;;;;4.73;1.40;;;;;;;6.32;66.21;94390.94;4961068;28;20281;-85
2021/12/05 10:37:12;;;;;;;3.17;1.30;;;;;;;6.41;66.77;94384.72;4974108;28;20201;-85
2021/12/05 10:39:41;;;;;;;2.27;1.23;;;;;;;6.46;66.74;94387.53;4974953;28;20227;-85
2021/12/05 10:42:36;;;;;;;3.07;1.30;;;;;;;6.52;67.93;94384.28;4978089;28;20220;-85
2021/12/05 10:45:06;;;;;;;3.23;1.33;;;;;;;6.55;66.93;94390.75;4977415;28;20228;-86
2021/12/05 10:47:40;;;;;;;2.20;1.40;;;;;;;6.63;66.64;94392.41;4986488;28;20204;-86
2021/12/05 10:50:35;;;;;;;3.63;1.80;;;;;;;6.54;65.67;94389.97;4984589;28;20234;-86
2021/12/05 10:53:29;;;;;;;3.83;2.77;;;;;;;6.59;64.98;94389.44;4980397;28;20228;-85
2021/12/05 10:56:08;;;;;;;3.67;1.80;;;;;;;6.54;64.37;94386.66;4981040;28;20235;-86
2021/12/05 10:58:47;;;;;;;3.00;1.30;;;;;;;6.48;64.05;94384.81;4979898;28;20204;-86
2021/12/05 11:01:22;;;;;;;2.87;1.43;;;;;;;6.49;65.02;94388.94;4979493;28;20228;-86
2021/12/05 11:03:53;;;;;;;3.73;1.87;;;;;;;6.43;65.36;94389.66;4979775;28;20216;-85
2021/12/05 11:06:39;;;;;;;2.83;1.30;;;;;;;6.56;65.84;94382.13;4979145;28;20204;-86
2021/12/05 11:09:15;;;;;;;3.47;1.30;;;;;;;6.63;65.22;94384.75;4979167;28;20228;-85
2021/12/05 11:11:47;;;;;;;2.90;1.60;;;;;;;6.70;65.34;94381.28;4979494;28;20238;-86
2021/12/05 11:14:19;;;;;;;3.67;1.57;;;;;;;6.74;64.47;94381.69;4978488;28;20251;-86
2021/12/05 11:16:57;;;;;;;2.50;1.17;;;;;;;6.74;64.48;94385.06;4979236;28;20200;-86
2021/12/05 11:19:33;;;;;;;3.17;1.40;;;;;;;6.74;64.62;94391.94;4978324;28;20227;-85
2021/12/05 11:22:15;;;;;;;3.13;1.20;;;;;;;6.74;63.97;94394.50;4980342;28;20295;-86
2021/12/05 11:24:46;;;;;;;1.97;1.10;;;;;;;6.63;63.98;94390.66;4979224;28;20228;-85
2021/12/05 11:27:35;;;;;;;3.40;1.33;;;;;;;6.59;63.11;94391.97;4980993;28;20204;-86
2021/12/05 11:30:10;;;;;;;2.70;1.20;;;;;;;6.54;62.89;94395.06;4964161;28;20220;-86
2021/12/05 11:32:40;;;;;;;1.80;1.30;;;;;;;6.52;62.34;94389.38;4979373;28;20216;-85
2021/12/05 11:35:15;;;;;;;4.70;1.40;;;;;;;6.54;64.16;94382.28;4978947;28;20191;-85
2021/12/05 11:37:51;;;;;;;3.43;1.60;;;;;;;6.63;63.17;94387.31;4980484;28;20199;-85
2021/12/05 11:40:24;;;;;;;2.50;1.43;;;;;;;6.58;63.74;94382.72;4977656;28;20228;-86
2021/12/05 11:42:54;;;;;;;1.93;1.20;;;;;;;6.61;62.42;94384.94;4977882;28;20251;-85
2021/12/05 11:45:23;;;;;;;1.87;1.43;;;;;;;6.62;62.38;94389.06;4979541;28;20695;-86
2021/12/05 11:47:53;;;;;;;2.30;1.53;;;;;;;6.68;63.02;94390.13;4979421;28;20200;-85
2021/12/05 11:50:39;;;;;;;2.93;1.37;;;;;;;6.67;62.58;94385.97;4978464;28;20227;-86
2021/12/05 11:53:15;;;;;;;3.53;1.77;;;;;;;6.66;62.70;94389.50;4977313;28;20763;-86
2021/12/05 11:55:45;;;;;;;1.83;1.30;;;;;;;6.69;62.99;94386.59;4978386;28;20209;-86
2021/12/05 11:58:20;;;;;;;2.17;1.10;;;;;;;6.66;63.09;94382.63;4966840;28;20268;-86
2021/12/05 12:00:46;;;;;;;2.03;1.30;;;;;;;6.62;62.77;94391.63;4982216;28;20226;-87
2021/12/05 12:03:30;;;;;;;3.47;1.50;;;;;;;6.61;62.67;94384.94;4978247;28;20227;-86
2021/12/05 12:08:37;;;;;;;1.73;1.10;;;;;;;6.59;61.75;94380.00;4967692;28;20287;-86
2021/12/05 12:11:06;;;;;;;2.60;1.50;;;;;;;6.61;62.13;94379.03;4975910;28;20243;-86
2021/12/05 12:13:37;;;;;;;9.57;7.27;;;;;;;6.56;61.94;94377.78;4977698;28;20224;-86
2021/12/05 12:16:08;;;;;;;6.73;3.10;;;;;;;6.56;62.09;94380.34;4976432;28;20356;-86
2021/12/05 12:18:44;;;;;;;2.57;1.43;;;;;;;6.53;61.23;94378.19;4978781;28;20212;-86
2021/12/05 12:21:22;;;;;;;6.80;1.83;;;;;;;6.93;81.72;94376.75;4965581;28;20231;-85
2021/12/05 12:23:57;;;;;;;4.30;1.50;;;;;;;7.39;78.46;94375.56;4956019;28;20311;-85
2021/12/05 12:26:33;;;;;;;3.73;1.60;;;;;;;7.37;61.78;94373.19;4967803;28;20318;-86
2021/12/05 12:29:15;;;;;;;2.50;1.10;;;;;;;7.18;60.77;94374.63;4974224;28;20211;-86
2021/12/05 12:32:11;;;;;;;4.40;1.33;;;;;;;7.04;59.73;94361.91;4977280;28;20208;-85
2021/12/05 12:34:45;;;;;;;4.17;1.40;;;;;;;6.93;61.08;94370.84;4975747;28;20657;-86
2021/12/05 12:37:19;;;;;;;4.10;1.57;;;;;;;6.89;60.98;94372.22;4975116;28;20208;-86
2021/12/05 12:39:48;;;;;;;2.23;1.20;;;;;;;6.89;61.74;94372.22;4975011;28;20635;-86
2021/12/05 12:42:23;;;;;;;1.90;1.10;;;;;;;6.88;61.11;94375.75;4976123;28;20227;-86
2021/12/05 12:45:14;;;;;;;2.40;1.30;;;;;;;6.86;60.89;94368.25;4975918;28;20224;-86
2021/12/05 12:47:46;;;;;;;2.53;1.23;;;;;;;6.83;61.23;94373.75;4976255;28;20209;-85
2021/12/05 12:50:33;;;;;;;2.40;1.33;;;;;;;6.82;61.21;94372.16;4975622;28;20378;-86
2021/12/05 12:53:11;;;;;;;2.40;1.43;;;;;;;6.82;61.47;94371.34;4976181;28;20324;-86
2021/12/05 12:55:44;;;;;;;1.60;1.30;;;;;;;6.84;61.77;94370.22;4976260;28;20199;-86
2021/12/05 12:58:38;;;;;;;2.20;1.30;;;;;;;6.83;61.09;94372.94;4975520;28;20211;-85
2021/12/05 13:01:20;;;;;;;1.93;1.20;;;;;;;6.80;61.65;94374.09;4982817;28;20244;-86
2021/12/05 13:04:28;;;;;;;48.13;33.87;;;;;;;6.70;61.43;94365.94;4977359;28;20282;-86
2021/12/05 13:09:57;;;;;;;8.67;5.67;;;;;;;6.65;61.56;94370.03;4976999;28;20196;-85
2021/12/05 13:10:25;;;;;;;5.00;3.00;;;;;;;6.70;62.07;94368.50;4969119;28;20235;-86
2021/12/05 13:12:59;;;;;;;4.07;1.90;;;;;;;6.70;62.31;94373.63;4978125;28;20223;-86
2021/12/05 13:15:37;;;;;;;3.27;1.80;;;;;;;6.72;62.41;94370.88;4978061;28;20204;-86
2021/12/05 13:18:21;;;;;;;11.80;6.37;;;;;;;6.75;62.47;94370.50;4977402;28;20298;-85
2021/12/05 13:20:54;;;;;;;11.70;8.23;;;;;;;6.78;62.01;94372.69;4979493;28;20715;-86
2021/12/05 13:23:36;;;;;;;8.70;5.80;;;;;;;6.79;61.90;94369.97;4980662;28;20236;-86
2021/12/05 13:26:20;;;;;;;6.00;4.10;;;;;;;6.85;61.74;94374.34;4979152;28;20224;-86
2021/12/05 13:28:49;;;;;;;3.33;2.20;;;;;;;6.85;62.32;94373.56;4978438;28;20226;-86
2021/12/05 13:31:40;;;;;;;3.73;2.03;;;;;;;6.83;62.58;94367.81;4979301;28;20671;-86
2021/12/05 13:34:25;;;;;;;2.60;1.63;;;;;;;6.88;62.35;94370.63;4980298;28;20215;-86
2021/12/05 13:36:59;;;;;;;3.43;1.80;;;;;;;6.87;61.37;94377.53;4979468;28;20262;-85
2021/12/05 13:39:41;;;;;;;2.60;1.27;;;;;;;6.71;60.93;94364.97;4977436;28;20224;-86
2021/12/05 13:42:14;;;;;;;3.03;1.37;;;;;;;6.72;62.11;94378.56;4979048;28;20300;-86
2021/12/05 13:45:07;;;;;;;1.80;1.53;;;;;;;6.77;62.08;94383.91;4977749;28;20204;-86
2021/12/05 13:47:39;;;;;;;1.93;1.30;;;;;;;6.80;61.78;94386.09;4977378;28;20208;-86
2021/12/05 13:50:29;;;;;;;2.23;1.53;;;;;;;6.84;61.99;94388.09;4976800;28;20262;-86
2021/12/05 13:52:57;;;;;;;4.50;2.00;;;;;;;6.83;62.34;94383.97;4977399;28;20248;-86
2021/12/05 13:55:38;;;;;;;2.40;1.63;;;;;;;6.88;61.96;94389.34;4977051;28;20200;-86
2021/12/05 13:58:25;;;;;;;4.60;1.63;;;;;;;6.80;62.14;94386.09;4976388;28;20208;-86
2021/12/05 14:00:56;;;;;;;2.83;1.37;;;;;;;6.78;61.58;94395.72;4976408;28;20640;-86
2021/12/05 14:03:44;;;;;;;2.73;1.33;;;;;;;6.79;61.23;94384.50;4977513;28;20228;-86
2021/12/05 14:06:47;;;;;;;2.63;1.30;;;;;;;6.78;60.95;94388.03;4977901;28;20221;-86
2021/12/05 14:09:17;;;;;;;2.13;1.03;;;;;;;6.80;61.07;94386.88;4978275;28;20223;-86
2021/12/05 14:12:07;;;;;;;1.60;1.20;;;;;;;6.81;61.04;94385.91;4979944;28;20231;-86
2021/12/05 14:14:37;;;;;;;2.13;1.30;;;;;;;6.85;61.52;94386.34;4978665;28;20205;-86
2021/12/05 14:17:06;;;;;;;2.37;1.30;;;;;;;6.86;61.83;94388.72;4978110;28;20200;-86
2021/12/05 14:19:36;;;;;;;3.73;1.30;;;;;;;6.87;61.77;94386.97;4979775;28;20236;-86
2021/12/05 14:22:06;;;;;;;2.00;1.20;;;;;;;6.86;61.30;94390.50;4981175;28;20232;-84
2021/12/05 14:24:36;;;;;;;2.30;1.37;;;;;;;6.87;61.44;94392.06;4980679;28;20208;-84
2021/12/05 14:27:06;;;;;;;2.37;1.27;;;;;;;6.86;61.99;94395.59;4977924;28;20219;-84
2021/12/05 14:29:34;;;;;;;4.13;1.60;;;;;;;6.85;61.76;94397.38;4979188;28;20721;-84
2021/12/05 14:32:07;;;;;;;3.20;1.30;;;;;;;6.81;61.93;94391.03;4978986;28;20228;-84
2021/12/05 14:34:35;;;;;;;2.13;1.50;;;;;;;6.77;61.74;94387.25;4979585;28;20192;-84
2021/12/05 14:37:05;;;;;;;2.43;1.53;;;;;;;6.77;62.12;94392.38;4978119;28;20251;-83
2021/12/05 14:39:33;;;;;;;2.13;1.40;;;;;;;6.78;62.20;94395.72;4988560;28;20236;-84
2021/12/05 14:42:03;;;;;;;2.37;1.50;;;;;;;6.69;61.23;94402.72;4977885;28;20207;-85
2021/12/05 14:44:31;;;;;;;3.60;1.90;;;;;;;6.66;62.20;94389.50;4977980;28;20227;-86
2021/12/05 14:47:04;;;;;;;2.57;1.47;;;;;;;6.63;61.88;94397.53;4977220;28;20691;-86
2021/12/05 14:49:41;;;;;;;4.10;1.50;;;;;;;6.64;62.47;94402.47;4977802;28;20251;-86
2021/12/05 14:52:13;;;;;;;2.40;1.60;;;;;;;6.66;62.41;94405.66;4977053;28;20218;-86
2021/12/05 14:54:41;;;;;;;2.17;1.50;;;;;;;6.65;61.95;94411.72;4978055;28;20243;-85
2021/12/05 14:57:11;;;;;;;3.57;1.80;;;;;;;6.64;61.84;94412.69;4977362;28;20207;-86
2021/12/05 14:59:38;;;;;;;3.23;1.80;;;;;;;6.62;61.88;94412.09;4977057;28;20235;-85
2021/12/05 15:02:06;;;;;;;2.67;1.50;;;;;;;6.64;62.51;94411.91;4976966;28;20216;-86
2021/12/05 15:04:37;;;;;;;5.70;1.93;;;;;;;6.64;62.36;94412.69;4978520;28;20211;-86
2021/12/05 15:07:04;;;;;;;2.53;1.70;;;;;;;6.65;62.69;94423.72;4978652;28;20847;-86
2021/12/05 15:09:35;;;;;;;2.63;1.83;;;;;;;6.64;62.50;94417.03;4978450;28;20247;-86
2021/12/05 15:12:05;;;;;;;2.60;1.83;;;;;;;6.62;62.66;94424.88;4979448;28;20200;-85
2021/12/05 15:14:34;;;;;;;2.60;1.77;;;;;;;6.61;63.06;94425.06;4978802;28;20215;-86
2021/12/05 15:17:04;;;;;;;2.87;1.77;;;;;;;6.61;63.43;94427.59;4978625;28;20202;-85
2021/12/05 15:19:31;;;;;;;3.27;2.13;;;;;;;6.61;63.56;94438.63;4977943;28;20610;-85
2021/12/05 15:21:58;;;;;;;3.60;1.90;;;;;;;6.63;63.47;94434.13;4977763;28;20216;-86
2021/12/05 15:24:27;;;;;;;2.93;1.83;;;;;;;6.57;63.21;94433.06;4977815;28;20196;-86
2021/12/05 15:26:58;;;;;;;4.10;2.00;;;;;;;6.50;63.61;94439.09;4978039;28;20224;-85
2021/12/05 15:29:26;;;;;;;4.50;2.10;;;;;;;6.36;64.64;94443.25;4978040;28;20224;-86
2021/12/05 15:31:54;;;;;;;3.30;2.03;;;;;;;6.32;66.47;94449.72;4979011;28;20210;-85
2021/12/05 15:34:23;;;;;;;3.77;1.97;;;;;;;6.09;69.11;94457.47;4978201;28;20222;-86
2021/12/05 15:36:51;;;;;;;2.90;1.83;;;;;;;5.95;70.53;94449.81;4977385;28;20207;-85
2021/12/05 15:39:24;;;;;;;2.73;1.80;;;;;;;5.82;71.01;94453.72;4977244;28;20234;-86
2021/12/05 15:41:55;;;;;;;3.13;2.00;;;;;;;5.74;71.91;94461.47;4976179;28;20204;-85
2021/12/05 15:44:33;;;;;;;3.13;1.70;;;;;;;5.65;72.86;94459.16;4977928;28;20672;-85
2021/12/05 15:47:12;;;;;;;1.53;1.20;;;;;;;5.62;72.53;94452.63;4977550;28;20223;-85
2021/12/05 15:49:59;;;;;;;1.53;1.40;;;;;;;5.63;72.26;94464.44;4977258;28;20239;-85